<?xml version="1.0" encoding="UTF-8" standalone="no" ?>
<gpx xmlns="http://www.topografix.com/GPX/1/1" xmlns:xsi="http://www.w3.org/2001/XMLSchema-instance" xsi:schemaLocation="http://www.topografix.com/GPX/1/1 http://www.topografix.com/GPX/1/1/gpx.xsd" version="1.1" creator="VisuGPX - https://www.visugpx.com">
  <metadata>
    <name>Chemins du soleil Sud</name>
  </metadata>
  <trk>
    <name><![CDATA[track]]></name>
    <trkseg>
      <trkpt lat="43.70398" lon="7.26588">
        <ele>21</ele>
        <time>1990-12-10T14:57:03Z</time>
      </trkpt>
      <trkpt lat="43.70365" lon="7.26618">
        <ele>20</ele>
        <time>1990-12-10T14:57:13Z</time>
      </trkpt>
      <trkpt lat="43.70325" lon="7.26638">
        <ele>20</ele>
        <time>1990-12-10T14:57:25Z</time>
      </trkpt>
      <trkpt lat="43.70272" lon="7.26662">
        <ele>20</ele>
        <time>1990-12-10T14:58:05Z</time>
      </trkpt>
      <trkpt lat="43.7026" lon="7.26667">
        <ele>19</ele>
        <time>1990-12-10T14:58:12Z</time>
      </trkpt>
      <trkpt lat="43.70198" lon="7.26697">
        <ele>19</ele>
        <time>1990-12-10T14:58:31Z</time>
      </trkpt>
      <trkpt lat="43.70163" lon="7.26745">
        <ele>19</ele>
        <time>1990-12-10T14:58:48Z</time>
      </trkpt>
      <trkpt lat="43.70077" lon="7.2679">
        <ele>18</ele>
        <time>1990-12-10T14:59:07Z</time>
      </trkpt>
      <trkpt lat="43.70023" lon="7.26825">
        <ele>19</ele>
        <time>1990-12-10T14:59:50Z</time>
      </trkpt>
      <trkpt lat="43.69975" lon="7.26853">
        <ele>19</ele>
        <time>1990-12-10T15:00:19Z</time>
      </trkpt>
      <trkpt lat="43.6994" lon="7.26873">
        <ele>19</ele>
        <time>1990-12-10T15:00:33Z</time>
      </trkpt>
      <trkpt lat="43.69872" lon="7.26908">
        <ele>19</ele>
        <time>1990-12-10T15:00:53Z</time>
      </trkpt>
      <trkpt lat="43.69867" lon="7.2691">
        <ele>19</ele>
        <time>1990-12-10T15:01:07Z</time>
      </trkpt>
      <trkpt lat="43.69863" lon="7.26918">
        <ele>19</ele>
        <time>1990-12-10T15:01:13Z</time>
      </trkpt>
      <trkpt lat="43.6977" lon="7.2697">
        <ele>21</ele>
        <time>1990-12-10T15:01:37Z</time>
      </trkpt>
      <trkpt lat="43.6972" lon="7.27008">
        <ele>21</ele>
        <time>1990-12-10T15:02:03Z</time>
      </trkpt>
      <trkpt lat="43.69663" lon="7.2703">
        <ele>21</ele>
        <time>1990-12-10T15:02:32Z</time>
      </trkpt>
      <trkpt lat="43.6962" lon="7.2702">
        <ele>19</ele>
        <time>1990-12-10T15:02:55Z</time>
      </trkpt>
      <trkpt lat="43.69595" lon="7.26988">
        <ele>18</ele>
        <time>1990-12-10T15:03:07Z</time>
      </trkpt>
      <trkpt lat="43.69547" lon="7.26977">
        <ele>18</ele>
        <time>1990-12-10T15:03:21Z</time>
      </trkpt>
      <trkpt lat="43.69518" lon="7.26977">
        <ele>17</ele>
        <time>1990-12-10T15:03:34Z</time>
      </trkpt>
      <trkpt lat="43.69503" lon="7.26925">
        <ele>17</ele>
        <time>1990-12-10T15:03:55Z</time>
      </trkpt>
      <trkpt lat="43.69492" lon="7.26883">
        <ele>16</ele>
        <time>1990-12-10T15:05:01Z</time>
      </trkpt>
      <trkpt lat="43.69478" lon="7.26822">
        <ele>16</ele>
        <time>1990-12-10T15:05:30Z</time>
      </trkpt>
      <trkpt lat="43.6948" lon="7.26758">
        <ele>15</ele>
        <time>1990-12-10T15:05:57Z</time>
      </trkpt>
      <trkpt lat="43.69473" lon="7.26682">
        <ele>14</ele>
        <time>1990-12-10T15:06:18Z</time>
      </trkpt>
      <trkpt lat="43.6947" lon="7.26655">
        <ele>14</ele>
        <time>1990-12-10T15:06:33Z</time>
      </trkpt>
      <trkpt lat="43.6947" lon="7.26688">
        <ele>13</ele>
        <time>1990-12-10T15:06:51Z</time>
      </trkpt>
    </trkseg>
  </trk>
</gpx>